createdAt,value
2023-01-19T00:00:57.451Z,19.88
2023-01-19T00:02:30.452Z,20.60
2023-01-19T00:04:03.432Z,18.92
2023-01-19T00:05:37.118Z,19.52
2023-01-19T00:07:10.102Z,21.73
2023-01-19T00:08:44.658Z,23.42
2023-01-19T00:10:19.511Z,21.03
2023-01-19T00:11:52.552Z,21.10
2023-01-19T00:13:25.774Z,21.63
2023-01-19T00:15:00.271Z,19.23
2023-01-19T00:16:33.220Z,21.37
2023-01-19T00:18:05.284Z,22.60
2023-01-19T00:19:38.243Z,22.97
2023-01-19T00:21:11.466Z,19.90
2023-01-19T00:22:44.368Z,20.92
2023-01-19T00:24:17.602Z,24.50
2023-01-19T00:25:51.297Z,20.48
2023-01-19T00:27:24.515Z,22.37
2023-01-19T00:28:57.899Z,23.38
2023-01-19T00:32:05.229Z,25.60
2023-01-19T00:33:37.358Z,20.03
2023-01-19T00:35:10.647Z,21.23
2023-01-19T00:36:44.040Z,22.38
2023-01-19T00:39:48.793Z,20.47
2023-01-19T00:41:43.892Z,23.10
2023-01-19T00:43:15.974Z,22.57
2023-01-19T00:44:48.976Z,21.80
2023-01-19T00:46:27.154Z,27.20
2023-01-19T00:48:00.085Z,21.33
2023-01-19T00:49:33.049Z,19.42
2023-01-19T00:51:06.313Z,20.42
2023-01-19T00:52:38.730Z,22.75
2023-01-19T00:54:11.584Z,22.63
2023-01-19T00:55:43.575Z,20.35
2023-01-19T00:57:19.138Z,19.80
2023-01-19T00:58:52.051Z,23.00
2023-01-19T01:00:25.666Z,22.05
2023-01-19T01:01:58.813Z,21.90
2023-01-19T01:03:32.017Z,22.48
2023-01-19T01:05:06.099Z,27.38
2023-01-19T01:06:39.084Z,30.67
2023-01-19T01:08:11.948Z,24.38
2023-01-19T01:09:44.833Z,25.80
2023-01-19T01:11:17.740Z,23.25
2023-01-19T01:13:19.975Z,24.52
2023-01-19T01:14:45.626Z,24.47
2023-01-19T01:16:18.691Z,21.90
2023-01-19T01:17:53.100Z,22.00
2023-01-19T01:19:26.121Z,23.97
2023-01-19T01:21:02.669Z,23.02
2023-01-19T01:22:35.576Z,25.50
2023-01-19T01:24:09.387Z,24.63
2023-01-19T01:25:42.594Z,21.27
2023-01-19T01:27:15.619Z,24.25
2023-01-19T01:28:50.665Z,27.55
2023-01-19T01:30:24.061Z,25.63
2023-01-19T01:33:41.060Z,26.13
2023-01-19T01:35:15.395Z,24.87
2023-01-19T01:36:48.350Z,22.93
2023-01-19T01:38:21.436Z,25.08
2023-01-19T01:39:54.410Z,25.08
2023-01-19T01:41:27.391Z,25.63
2023-01-19T01:43:00.790Z,23.55
2023-01-19T01:44:53.937Z,27.03
2023-01-19T01:46:28.663Z,26.23
2023-01-19T01:48:09.811Z,24.80
2023-01-19T01:49:42.077Z,31.37
2023-01-19T01:51:25.283Z,26.77
2023-01-19T01:53:06.898Z,23.80
2023-01-19T01:54:40.897Z,25.23
2023-01-19T01:56:17.791Z,23.48
2023-01-19T01:57:54.547Z,26.10
2023-01-19T01:59:34.831Z,24.17
2023-01-19T02:01:29.149Z,23.23
2023-01-19T02:04:35.932Z,22.98
2023-01-19T02:06:10.315Z,23.95
2023-01-19T02:08:06.505Z,24.17
2023-01-19T02:09:56.940Z,23.47
2023-01-19T02:11:48.913Z,26.07
2023-01-19T02:13:23.196Z,23.77
2023-01-19T02:14:56.428Z,23.73
2023-01-19T02:16:30.998Z,25.85
2023-01-19T02:18:02.974Z,27.23
2023-01-19T02:19:41.826Z,25.83
2023-01-19T02:21:21.105Z,23.93
2023-01-19T02:22:55.216Z,22.40
2023-01-19T02:24:30.049Z,23.70
2023-01-19T02:26:02.594Z,23.80
2023-01-19T02:27:36.994Z,26.77
2023-01-19T02:29:13.005Z,21.90
2023-01-19T02:30:45.293Z,22.97
2023-01-19T02:32:18.281Z,23.80
2023-01-19T02:33:51.589Z,23.38
2023-01-19T02:35:25.500Z,22.50
2023-01-19T02:37:03.001Z,25.27
2023-01-19T02:38:38.427Z,20.87
2023-01-19T02:40:15.271Z,24.40
2023-01-19T02:41:52.729Z,22.60
2023-01-19T02:43:27.822Z,25.00
2023-01-19T02:45:01.044Z,26.80
2023-01-19T02:46:37.265Z,27.45
2023-01-19T02:48:10.241Z,26.07
2023-01-19T02:49:43.174Z,29.52
2023-01-19T02:51:19.118Z,24.60
2023-01-19T02:52:54.483Z,24.53
2023-01-19T02:54:46.544Z,23.77
2023-01-19T02:56:56.764Z,28.83
2023-01-19T02:58:37.879Z,25.60
2023-01-19T03:00:23.618Z,24.87
2023-01-19T03:02:20.198Z,22.77
2023-01-19T03:03:57.086Z,26.50
2023-01-19T03:05:57.322Z,20.53
2023-01-19T03:07:44.795Z,22.83
2023-01-19T03:09:29.028Z,25.13
2023-01-19T03:11:09.532Z,23.70
2023-01-19T03:12:50.690Z,23.60
2023-01-19T03:14:29.774Z,22.50
2023-01-19T03:16:12.123Z,22.03
2023-01-19T03:17:48.902Z,22.57
2023-01-19T03:19:27.280Z,23.00
2023-01-19T03:21:03.156Z,25.97
2023-01-19T03:22:36.950Z,25.80
2023-01-19T03:24:12.637Z,25.50
2023-01-19T03:25:48.451Z,29.13
2023-01-19T03:27:27.098Z,23.90
2023-01-19T03:29:02.373Z,26.20
2023-01-19T03:30:40.526Z,24.07
2023-01-19T03:32:17.452Z,25.73
2023-01-19T03:33:53.625Z,26.97
2023-01-19T03:35:30.545Z,27.33
2023-01-19T03:37:05.539Z,24.03
2023-01-19T03:38:39.539Z,22.80
2023-01-19T03:40:13.209Z,28.97
2023-01-19T03:41:49.643Z,24.43
2023-01-19T03:43:24.448Z,27.50
2023-01-19T03:45:02.278Z,25.63
2023-01-19T03:46:34.731Z,25.30
2023-01-19T03:48:08.497Z,27.30
2023-01-19T03:49:44.341Z,30.60
2023-01-19T03:51:19.500Z,23.20
2023-01-19T03:53:02.677Z,28.10
2023-01-19T03:54:35.762Z,26.88
2023-01-19T03:56:16.771Z,34.92
2023-01-19T03:57:49.887Z,28.13
2023-01-19T03:59:22.827Z,31.13
2023-01-19T04:00:57.114Z,30.42
2023-01-19T04:02:30.130Z,30.13
2023-01-19T04:04:03.085Z,28.45
2023-01-19T04:05:35.120Z,25.25
2023-01-19T04:07:08.029Z,30.30
2023-01-19T04:08:40.735Z,32.40
2023-01-19T04:10:13.727Z,30.20
2023-01-19T04:11:46.731Z,31.10
2023-01-19T04:13:19.605Z,26.75
2023-01-19T04:14:52.530Z,25.70
2023-01-19T04:16:26.911Z,28.48
2023-01-19T04:18:00.119Z,26.93
2023-01-19T04:19:33.147Z,26.10
2023-01-19T04:21:08.774Z,25.70
2023-01-19T04:22:42.518Z,30.53
2023-01-19T04:24:15.471Z,28.93
2023-01-19T04:25:48.443Z,26.83
2023-01-19T04:27:21.502Z,26.92
2023-01-19T04:28:54.425Z,27.15
2023-01-19T04:30:27.274Z,28.15
2023-01-19T04:32:01.572Z,27.40
2023-01-19T04:33:35.058Z,26.93
2023-01-19T04:36:52.490Z,25.07
2023-01-19T04:38:33.345Z,27.57
2023-01-19T04:40:08.212Z,29.13
2023-01-19T04:41:47.945Z,28.87
2023-01-19T04:43:22.080Z,26.03
2023-01-19T04:44:55.590Z,27.77
2023-01-19T04:48:18.296Z,24.03
2023-01-19T04:49:54.242Z,26.90
2023-01-19T04:51:28.793Z,26.40
2023-01-19T04:53:10.387Z,25.27
2023-01-19T04:54:44.467Z,24.10
2023-01-19T04:56:20.018Z,30.57
2023-01-19T04:57:54.656Z,25.53
2023-01-19T04:59:33.555Z,24.93
2023-01-19T05:01:17.867Z,29.57
2023-01-19T05:02:51.984Z,25.87
2023-01-19T05:04:27.535Z,23.43
2023-01-19T05:06:01.001Z,24.77
2023-01-19T05:09:15.290Z,25.47
2023-01-19T05:10:54.144Z,27.93
2023-01-19T05:12:29.906Z,31.17
2023-01-19T05:14:03.656Z,32.83
2023-01-19T05:15:37.528Z,29.00
2023-01-19T05:17:11.656Z,31.17
2023-01-19T05:18:46.912Z,31.23
2023-01-19T05:20:22.287Z,28.43
2023-01-19T05:21:56.491Z,27.10
2023-01-19T05:23:31.232Z,29.10
2023-01-19T05:25:12.663Z,27.93
2023-01-19T05:26:46.338Z,29.13
2023-01-19T05:28:21.421Z,30.30
2023-01-19T05:29:55.340Z,31.03
2023-01-19T05:31:29.109Z,29.70
2023-01-19T05:33:13.015Z,25.93
2023-01-19T05:34:51.132Z,24.65
2023-01-19T05:36:38.189Z,27.40
2023-01-19T05:38:14.521Z,25.13
2023-01-19T05:39:48.255Z,25.93
2023-01-19T05:41:22.271Z,29.83
2023-01-19T05:42:55.819Z,28.73
2023-01-19T05:44:32.576Z,26.33
2023-01-19T05:46:08.423Z,27.67
2023-01-19T05:47:41.409Z,27.93
2023-01-19T05:49:14.590Z,26.05
2023-01-19T05:50:49.392Z,27.52
2023-01-19T05:52:24.969Z,27.83
2023-01-19T05:54:04.761Z,29.20
2023-01-19T05:55:37.880Z,28.07
2023-01-19T05:57:11.895Z,26.40
2023-01-19T05:58:44.954Z,28.70
2023-01-19T06:00:17.737Z,25.38
2023-01-19T06:01:50.888Z,26.55
2023-01-19T06:03:24.357Z,24.33
2023-01-19T06:06:30.524Z,25.83
2023-01-19T06:08:05.022Z,24.10
2023-01-19T06:09:38.276Z,25.10
2023-01-19T06:11:11.293Z,26.95
2023-01-19T06:12:44.278Z,24.40
2023-01-19T06:14:17.588Z,21.25
2023-01-19T06:15:50.536Z,22.05
2023-01-19T06:17:23.621Z,26.13
2023-01-19T06:18:57.088Z,29.98
2023-01-19T06:20:30.379Z,27.70
2023-01-19T06:22:03.485Z,27.73
2023-01-19T06:23:38.198Z,31.55
2023-01-19T06:25:11.928Z,29.07
2023-01-19T06:26:45.071Z,32.50
2023-01-19T06:28:18.290Z,25.48
2023-01-19T06:29:51.297Z,27.15
2023-01-19T06:31:24.847Z,29.83
2023-01-19T06:32:58.073Z,26.73
2023-01-19T06:34:31.083Z,27.08
2023-01-19T06:36:04.540Z,25.48
2023-01-19T06:37:37.674Z,29.87
2023-01-19T06:39:12.074Z,28.60
2023-01-19T06:40:45.767Z,26.13
2023-01-19T06:42:18.727Z,28.70
2023-01-19T06:43:51.634Z,25.10
2023-01-19T06:45:24.786Z,25.80
2023-01-19T06:47:15.917Z,27.75
2023-01-19T06:48:49.355Z,24.00
2023-01-19T06:50:22.363Z,24.60
2023-01-19T06:51:55.574Z,25.92
2023-01-19T06:53:30.137Z,27.92
2023-01-19T06:55:04.910Z,29.30
2023-01-19T06:56:37.910Z,29.43
2023-01-19T06:58:12.339Z,25.17
2023-01-19T06:59:45.155Z,31.93
2023-01-19T07:01:18.333Z,30.75
2023-01-19T07:02:51.520Z,26.67
2023-01-19T07:04:24.704Z,25.58
2023-01-19T07:05:57.698Z,29.20
2023-01-19T07:07:31.142Z,27.90
2023-01-19T07:11:25.850Z,27.57
2023-01-19T07:12:41.593Z,27.03
2023-01-19T07:14:14.761Z,26.00
2023-01-19T07:15:47.725Z,27.60
2023-01-19T07:17:21.131Z,25.55
2023-01-19T07:20:27.019Z,24.50
2023-01-19T07:22:00.598Z,27.67
2023-01-19T07:23:33.983Z,25.13
2023-01-19T07:26:42.285Z,26.57
2023-01-19T07:28:16.425Z,29.63
2023-01-19T07:29:49.361Z,25.13
2023-01-19T07:31:22.492Z,22.63
2023-01-19T07:32:57.102Z,29.85
2023-01-19T07:34:30.063Z,26.90
2023-01-19T07:36:03.203Z,26.33
2023-01-19T07:37:36.430Z,29.20
2023-01-19T07:39:09.538Z,34.60
2023-01-19T07:40:42.550Z,27.45
2023-01-19T07:42:16.859Z,30.17
2023-01-19T07:43:51.314Z,24.63
2023-01-19T07:45:24.281Z,28.03
2023-01-19T07:46:57.345Z,34.25
2023-01-19T07:48:34.734Z,26.60
2023-01-19T07:50:10.176Z,31.07
2023-01-19T07:51:43.651Z,25.73
2023-01-19T07:54:50.907Z,25.98
2023-01-19T07:56:24.635Z,24.70
2023-01-19T07:57:58.149Z,26.10
2023-01-19T08:01:08.291Z,23.45
2023-01-19T08:02:41.390Z,25.67
2023-01-19T08:04:14.398Z,26.70
2023-01-19T08:05:52.164Z,24.40
2023-01-19T08:07:25.116Z,26.33
2023-01-19T08:08:57.995Z,23.60
2023-01-19T08:10:31.253Z,26.23
2023-01-19T08:12:04.429Z,28.10
2023-01-19T08:13:38.816Z,23.25
2023-01-19T08:15:12.418Z,24.33
2023-01-19T08:16:45.362Z,27.07
2023-01-19T08:18:18.965Z,25.05
2023-01-19T08:19:51.886Z,30.37
2023-01-19T08:21:24.785Z,27.33
2023-01-19T08:23:00.131Z,24.40
2023-01-19T08:24:33.480Z,25.80
2023-01-19T08:26:20.245Z,25.98
2023-01-19T08:27:55.849Z,26.97
2023-01-19T08:29:31.880Z,31.80
2023-01-19T08:31:18.716Z,26.33
2023-01-19T08:32:53.753Z,23.30
2023-01-19T08:36:00.172Z,21.63
2023-01-19T08:37:34.301Z,24.42
2023-01-19T08:39:07.491Z,24.77
2023-01-19T08:40:42.040Z,26.75
2023-01-19T08:42:14.989Z,26.50
2023-01-19T08:43:47.932Z,26.25
2023-01-19T08:45:22.211Z,25.73
2023-01-19T08:46:55.179Z,25.77
2023-01-19T08:48:28.208Z,22.73
2023-01-19T08:50:01.143Z,26.45
2023-01-19T08:51:34.131Z,22.65
2023-01-19T08:53:07.588Z,23.33
2023-01-19T08:56:14.312Z,18.97
2023-01-19T08:57:47.214Z,28.83
2023-01-19T08:59:20.070Z,22.85
2023-01-19T09:00:54.643Z,25.60
2023-01-19T09:02:27.646Z,22.50
2023-01-19T09:04:00.735Z,19.35
2023-01-19T09:05:37.154Z,22.63
2023-01-19T09:07:10.133Z,21.40
2023-01-19T09:08:43.079Z,24.45
2023-01-19T09:10:16.826Z,23.63
2023-01-19T09:11:49.746Z,20.27
2023-01-19T09:13:22.680Z,18.50
2023-01-19T09:14:55.689Z,20.98
2023-01-19T09:16:30.001Z,18.50
2023-01-19T09:18:03.615Z,18.60
2023-01-19T09:19:36.465Z,17.00
2023-01-19T09:21:10.341Z,21.60
2023-01-19T09:22:43.327Z,34.87
2023-01-19T09:24:16.227Z,36.83
2023-01-19T09:25:49.582Z,27.33
2023-01-19T09:28:55.273Z,22.93
2023-01-19T09:30:28.793Z,20.80
2023-01-19T09:32:03.149Z,20.83
2023-01-19T09:33:36.615Z,17.47
2023-01-19T09:35:10.375Z,17.50
2023-01-19T09:36:43.316Z,20.20
2023-01-19T09:38:17.567Z,14.73
2023-01-19T09:39:50.565Z,16.83
2023-01-19T09:41:25.986Z,17.73
2023-01-19T09:43:08.034Z,20.13
2023-01-19T09:44:43.609Z,14.97
2023-01-19T09:46:20.227Z,15.00
2023-01-19T09:47:55.939Z,19.10
2023-01-19T09:49:34.682Z,18.70
2023-01-19T09:51:12.645Z,15.00
2023-01-19T09:52:53.098Z,18.43
2023-01-19T09:54:34.087Z,14.83
2023-01-19T09:56:11.938Z,15.60
2023-01-19T09:57:45.169Z,16.17
2023-01-19T09:59:22.120Z,16.65
2023-01-19T10:01:01.600Z,13.13
2023-01-19T10:02:41.697Z,14.73
2023-01-19T10:04:28.706Z,14.87
2023-01-19T10:06:04.761Z,16.07
2023-01-19T10:07:53.217Z,18.27
2023-01-19T10:09:33.403Z,17.30
2023-01-19T10:11:18.691Z,15.27
2023-01-19T10:13:11.043Z,15.10
2023-01-19T10:14:49.647Z,19.47
2023-01-19T10:16:34.059Z,23.40
2023-01-19T10:18:14.601Z,15.43
2023-01-19T10:19:54.419Z,16.23
2023-01-19T10:21:31.534Z,16.60
2023-01-19T10:23:17.251Z,13.33
2023-01-19T10:24:54.300Z,11.73
2023-01-19T10:26:33.917Z,14.73
2023-01-19T10:28:06.978Z,12.60
2023-01-19T10:29:39.997Z,11.88
2023-01-19T10:31:14.450Z,11.70
2023-01-19T10:32:47.953Z,13.83
2023-01-19T10:35:58.086Z,11.02
2023-01-19T10:37:34.306Z,11.70
2023-01-19T10:39:07.955Z,12.52
2023-01-19T10:40:53.884Z,10.23
2023-01-19T10:42:30.833Z,12.60
2023-01-19T10:44:05.337Z,13.15
2023-01-19T10:45:38.350Z,13.68
2023-01-19T10:47:17.792Z,13.95
2023-01-19T10:48:52.796Z,11.88
2023-01-19T10:50:28.145Z,12.20
2023-01-19T10:52:03.409Z,11.52
2023-01-19T10:53:36.906Z,11.40
2023-01-19T10:55:25.720Z,17.45
2023-01-19T10:57:00.380Z,12.82
2023-01-19T10:58:36.329Z,10.40
2023-01-19T11:00:31.341Z,12.40
2023-01-19T11:02:16.095Z,12.85
2023-01-19T11:03:49.845Z,11.45
2023-01-19T11:05:24.805Z,12.82
2023-01-19T11:07:15.063Z,10.95
2023-01-19T11:08:50.294Z,11.20
2023-01-19T11:10:25.549Z,12.20
2023-01-19T11:11:58.597Z,11.93
2023-01-19T11:13:32.663Z,9.90
2023-01-19T11:15:15.917Z,9.50
2023-01-19T11:16:52.409Z,14.43
2023-01-19T11:18:29.497Z,12.68
2023-01-19T11:20:03.981Z,11.70
2023-01-19T11:21:37.097Z,10.65
2023-01-19T11:23:23.569Z,13.55
2023-01-19T11:25:00.397Z,12.02
2023-01-19T11:26:42.660Z,11.10
2023-01-19T11:28:19.791Z,12.27
2023-01-19T11:30:01.517Z,13.45
2023-01-19T11:31:36.073Z,9.45
2023-01-19T11:33:25.500Z,10.88
2023-01-19T11:34:58.413Z,9.50
2023-01-19T11:36:33.347Z,14.55
2023-01-19T11:38:08.691Z,11.02
2023-01-19T11:39:50.459Z,10.60
2023-01-19T11:41:27.558Z,12.30
2023-01-19T11:43:01.269Z,9.27
2023-01-19T11:44:36.736Z,13.15
2023-01-19T11:46:13.110Z,10.20
2023-01-19T11:47:49.228Z,10.10
2023-01-19T11:49:28.879Z,12.88
2023-01-19T11:51:08.471Z,10.25
2023-01-19T11:52:46.979Z,9.25
2023-01-19T11:54:25.078Z,11.80
2023-01-19T11:56:03.809Z,11.90
2023-01-19T11:57:36.820Z,11.40
2023-01-19T11:59:12.931Z,17.48
2023-01-19T12:00:50.928Z,11.65
2023-01-19T12:02:29.739Z,13.50
2023-01-19T12:04:08.493Z,10.95
2023-01-19T12:05:47.267Z,10.68
2023-01-19T12:07:26.918Z,10.65
2023-01-19T12:09:02.870Z,11.93
2023-01-19T12:10:41.564Z,12.30
2023-01-19T12:12:26.823Z,10.07
2023-01-19T12:14:02.151Z,13.85
2023-01-19T12:15:39.761Z,14.20
2023-01-19T12:17:21.362Z,12.23
2023-01-19T12:18:57.602Z,10.52
2023-01-19T12:20:36.118Z,8.38
2023-01-19T12:22:14.462Z,14.95
2023-01-19T12:24:01.632Z,11.82
2023-01-19T12:25:48.027Z,10.40
2023-01-19T12:27:33.075Z,11.13
2023-01-19T12:29:12.635Z,9.32
2023-01-19T12:30:46.052Z,7.82
2023-01-19T12:32:21.084Z,10.52
2023-01-19T12:33:54.301Z,16.40
2023-01-19T12:35:56.058Z,8.32
2023-01-19T12:37:41.543Z,11.77
2023-01-19T12:39:19.713Z,10.63
2023-01-19T12:41:20.907Z,13.68
2023-01-19T12:43:01.419Z,9.80
2023-01-19T12:44:35.242Z,8.20
2023-01-19T12:46:20.673Z,9.35
2023-01-19T12:47:55.673Z,8.98
2023-01-19T12:49:32.123Z,6.95
2023-01-19T12:51:05.463Z,8.52
2023-01-19T12:54:28.427Z,11.32
2023-01-19T12:56:08.631Z,8.10
2023-01-19T12:57:50.159Z,7.80
2023-01-19T12:59:27.394Z,7.30
2023-01-19T13:01:16.496Z,7.93
2023-01-19T13:02:51.695Z,11.05
2023-01-19T13:04:33.120Z,8.68
2023-01-19T13:06:06.142Z,9.10
2023-01-19T13:08:12.703Z,9.02
2023-01-19T13:09:45.735Z,8.35
2023-01-19T13:11:20.766Z,9.00
2023-01-19T13:13:17.720Z,8.90
2023-01-19T13:14:52.636Z,9.23
2023-01-19T13:16:54.432Z,8.80
2023-01-19T13:18:54.447Z,8.10
2023-01-19T13:20:29.870Z,7.50
2023-01-19T13:22:41.403Z,8.70
2023-01-19T13:24:16.511Z,10.13
2023-01-19T13:25:54.263Z,9.80
2023-01-19T13:27:28.601Z,10.77
2023-01-19T13:29:07.962Z,8.80
2023-01-19T13:30:56.446Z,7.18
2023-01-19T13:32:30.188Z,9.30
2023-01-19T13:34:04.993Z,9.98
2023-01-19T13:35:38.341Z,11.05
2023-01-19T13:38:51.094Z,10.75
2023-01-19T13:40:26.297Z,11.57
2023-01-19T13:42:02.097Z,11.48
2023-01-19T13:43:39.041Z,9.70
2023-01-19T13:45:27.496Z,10.40
2023-01-19T13:47:04.976Z,10.77
2023-01-19T13:48:38.548Z,9.55
2023-01-19T13:50:21.460Z,12.90
2023-01-19T13:52:12.480Z,10.80
2023-01-19T13:53:55.088Z,12.55
2023-01-19T13:55:30.103Z,10.23
2023-01-19T13:57:03.137Z,9.18
2023-01-19T13:58:36.349Z,9.07
2023-01-19T14:00:18.712Z,17.70
2023-01-19T14:01:54.181Z,13.40
2023-01-19T14:03:29.029Z,16.88
2023-01-19T14:05:15.239Z,13.98
2023-01-19T14:06:49.799Z,12.63
2023-01-19T14:08:25.677Z,12.15
2023-01-19T14:10:06.478Z,10.43
2023-01-19T14:11:39.571Z,10.77
2023-01-19T14:13:17.448Z,12.70
2023-01-19T14:14:50.485Z,12.25
2023-01-19T14:16:25.105Z,11.68
2023-01-19T14:18:26.384Z,14.02
2023-01-19T14:20:01.990Z,11.18
2023-01-19T14:21:40.820Z,12.80
2023-01-19T14:23:39.493Z,13.00
2023-01-19T14:25:29.694Z,10.68
2023-01-19T14:27:14.196Z,9.35
2023-01-19T14:28:47.326Z,12.15
2023-01-19T14:30:24.975Z,11.43
2023-01-19T14:32:13.686Z,12.50
2023-01-19T14:33:47.762Z,10.57
2023-01-19T14:35:26.656Z,11.88
2023-01-19T14:37:00.567Z,10.75
2023-01-19T14:38:33.477Z,10.50
2023-01-19T14:40:19.460Z,12.55
2023-01-19T14:41:53.544Z,11.02
2023-01-19T14:43:28.617Z,10.77
2023-01-19T14:45:04.741Z,11.05
2023-01-19T14:46:38.136Z,12.20
2023-01-19T14:49:50.975Z,11.18
2023-01-19T14:51:26.787Z,12.25
2023-01-19T14:53:03.349Z,13.05
2023-01-19T14:54:40.062Z,10.27
2023-01-19T14:56:13.180Z,11.30
2023-01-19T14:57:46.188Z,10.23
2023-01-19T14:59:19.229Z,11.13
2023-01-19T15:00:55.611Z,12.13
2023-01-19T15:02:28.811Z,14.30
2023-01-19T15:04:01.858Z,10.23
2023-01-19T15:05:35.063Z,12.43
2023-01-19T15:07:17.385Z,12.98
2023-01-19T15:08:53.239Z,11.55
2023-01-19T15:10:27.066Z,12.10
2023-01-19T15:12:00.600Z,11.50
2023-01-19T15:13:33.641Z,12.88
2023-01-19T15:15:12.953Z,12.85
2023-01-19T15:16:46.554Z,12.50
2023-01-19T15:18:25.226Z,11.88
2023-01-19T15:19:58.305Z,11.23
2023-01-19T15:21:31.311Z,11.60
2023-01-19T15:23:05.810Z,13.55
2023-01-19T15:24:39.684Z,13.18
2023-01-19T15:26:17.609Z,13.05
2023-01-19T15:27:50.677Z,16.60
2023-01-19T15:29:25.880Z,14.80
2023-01-19T15:31:00.345Z,11.60
2023-01-19T15:32:33.280Z,12.32
2023-01-19T15:34:06.394Z,16.42
2023-01-19T15:35:39.511Z,18.75
2023-01-19T15:37:12.476Z,20.58
2023-01-19T15:38:47.488Z,14.27
2023-01-19T15:40:23.158Z,15.43
2023-01-19T15:41:56.681Z,12.52
2023-01-19T15:43:29.627Z,11.55
2023-01-19T15:45:02.537Z,13.07
2023-01-19T15:46:35.691Z,11.70
2023-01-19T15:48:10.876Z,11.93
2023-01-19T15:49:43.831Z,16.70
2023-01-19T15:51:18.977Z,14.30
2023-01-19T15:52:52.049Z,12.25
2023-01-19T15:54:26.311Z,10.38
2023-01-19T15:55:59.345Z,13.68
2023-01-19T15:57:34.625Z,12.77
2023-01-19T15:59:07.672Z,10.73
2023-01-19T16:00:41.074Z,12.68
2023-01-19T16:03:47.505Z,12.80
2023-01-19T16:06:57.176Z,12.30
2023-01-19T16:08:30.077Z,13.43
2023-01-19T16:10:06.204Z,19.67
2023-01-19T16:11:39.131Z,11.75
2023-01-19T16:13:13.168Z,13.43
2023-01-19T16:14:46.101Z,15.30
2023-01-19T16:16:23.364Z,14.05
2023-01-19T16:17:56.322Z,14.43
2023-01-19T16:19:29.260Z,16.08
2023-01-19T16:21:02.454Z,12.50
2023-01-19T16:22:36.914Z,13.38
2023-01-19T16:24:09.847Z,13.88
2023-01-19T16:25:44.215Z,14.63
2023-01-19T16:27:17.156Z,15.02
2023-01-19T16:28:50.198Z,14.27
2023-01-19T16:30:23.345Z,13.00
2023-01-19T16:31:56.527Z,15.63
2023-01-19T16:33:29.627Z,15.20
2023-01-19T16:35:02.541Z,13.10
2023-01-19T16:36:37.376Z,14.27
2023-01-19T16:38:10.332Z,14.17
2023-01-19T16:39:45.332Z,14.02
2023-01-19T16:41:19.861Z,15.27
2023-01-19T16:42:52.726Z,13.70
2023-01-19T16:44:25.805Z,15.30
2023-01-19T16:46:00.706Z,13.95
2023-01-19T16:47:33.638Z,16.03
2023-01-19T16:49:11.677Z,13.15
2023-01-19T16:50:44.571Z,14.90
2023-01-19T16:52:17.509Z,18.88
2023-01-19T16:53:51.451Z,13.65
2023-01-19T16:55:24.497Z,15.00
2023-01-19T16:56:59.495Z,16.77
2023-01-19T16:58:32.510Z,16.83
2023-01-19T17:00:06.417Z,12.95
2023-01-19T17:01:39.674Z,13.40
2023-01-19T17:04:45.518Z,13.20
2023-01-19T17:06:20.500Z,14.88
2023-01-19T17:07:53.397Z,13.87
2023-01-19T17:09:26.279Z,14.85
2023-01-19T17:11:02.646Z,14.25
2023-01-19T17:12:36.948Z,15.00
2023-01-19T17:14:12.811Z,15.67
2023-01-19T17:15:45.899Z,13.83
2023-01-19T17:17:18.873Z,14.20
2023-01-19T17:18:52.096Z,16.40
2023-01-19T17:20:25.073Z,14.80
2023-01-19T17:21:58.044Z,16.98
2023-01-19T17:23:31.547Z,14.98
2023-01-19T17:26:37.485Z,17.17
2023-01-19T17:28:11.854Z,19.45
2023-01-19T17:29:44.914Z,17.20
2023-01-19T17:31:19.710Z,15.25
2023-01-19T17:32:52.828Z,14.70
2023-01-19T17:34:25.881Z,13.82
2023-01-19T17:36:03.543Z,14.02
2023-01-19T17:37:36.497Z,15.80
2023-01-19T17:39:14.578Z,13.13
2023-01-19T17:40:47.622Z,16.42
2023-01-19T17:42:20.524Z,15.77
2023-01-19T17:43:55.939Z,14.95
2023-01-19T17:45:28.854Z,15.30
2023-01-19T17:47:01.858Z,13.38
2023-01-19T17:48:34.746Z,15.50
2023-01-19T17:50:08.000Z,13.95
2023-01-19T17:51:40.920Z,14.05
2023-01-19T17:53:13.806Z,15.07
2023-01-19T17:54:46.800Z,12.85
2023-01-19T17:56:21.990Z,12.50
2023-01-19T17:57:54.884Z,14.93
2023-01-19T17:59:29.421Z,13.27
2023-01-19T18:01:09.489Z,15.38
2023-01-19T18:02:42.496Z,14.10
2023-01-19T18:04:15.365Z,13.75
2023-01-19T18:05:54.406Z,11.57
2023-01-19T18:07:28.561Z,13.52
2023-01-19T18:09:01.454Z,15.00
2023-01-19T18:10:34.288Z,15.77
2023-01-19T18:12:07.420Z,19.30
2023-01-19T18:13:42.699Z,13.75
2023-01-19T18:15:17.137Z,15.20
2023-01-19T18:16:50.069Z,15.32
2023-01-19T18:18:23.042Z,15.18
2023-01-19T18:19:55.899Z,14.82
2023-01-19T18:21:30.502Z,13.40
2023-01-19T18:23:03.469Z,12.68
2023-01-19T18:24:36.475Z,15.10
2023-01-19T18:26:11.494Z,14.02
2023-01-19T18:27:44.427Z,13.40
2023-01-19T18:29:19.246Z,12.63
2023-01-19T18:30:53.607Z,12.55
2023-01-19T18:32:27.303Z,12.13
2023-01-19T18:34:00.337Z,12.18
2023-01-19T18:35:33.423Z,12.00
2023-01-19T18:37:06.340Z,13.07
2023-01-19T18:38:40.043Z,12.52
2023-01-19T18:40:14.022Z,14.13
2023-01-19T18:41:47.087Z,14.63
2023-01-19T18:43:20.001Z,12.25
2023-01-19T18:44:52.882Z,15.80
2023-01-19T18:46:27.453Z,12.40
2023-01-19T18:48:02.135Z,13.97
2023-01-19T18:49:35.064Z,17.67
2023-01-19T18:51:08.980Z,14.88
2023-01-19T18:52:41.961Z,16.02
2023-01-19T18:54:14.823Z,16.15
2023-01-19T18:55:52.276Z,17.30
2023-01-19T18:57:25.471Z,17.23
2023-01-19T18:58:58.602Z,19.20
2023-01-19T19:00:31.679Z,18.48
2023-01-19T19:02:07.680Z,18.05
2023-01-19T19:03:40.715Z,16.05
2023-01-19T19:05:13.584Z,18.38
2023-01-19T19:06:46.517Z,14.52
2023-01-19T19:08:19.662Z,17.70
2023-01-19T19:09:52.609Z,15.77
2023-01-19T19:11:26.537Z,15.65
2023-01-19T19:12:59.687Z,14.55
2023-01-19T19:14:33.178Z,16.23
2023-01-19T19:16:07.295Z,12.45
2023-01-19T19:17:41.699Z,15.32
2023-01-19T19:19:15.512Z,14.10
2023-01-19T19:20:48.514Z,14.68
2023-01-19T19:22:21.594Z,13.88
2023-01-19T19:23:56.490Z,12.90
2023-01-19T19:25:29.530Z,13.32
2023-01-19T19:27:02.549Z,14.45
2023-01-19T19:28:37.076Z,15.00
2023-01-19T19:30:11.628Z,13.48
2023-01-19T19:31:46.020Z,12.82
2023-01-19T19:33:20.240Z,15.88
2023-01-19T19:34:53.562Z,13.38
2023-01-19T19:38:00.209Z,13.10
2023-01-19T19:39:33.292Z,14.02
2023-01-19T19:41:07.208Z,14.82
2023-01-19T19:42:40.147Z,13.82
2023-01-19T19:44:13.726Z,14.20
2023-01-19T19:45:56.401Z,13.18
2023-01-19T19:47:31.511Z,16.23
2023-01-19T19:49:05.897Z,13.67
2023-01-19T19:50:38.895Z,12.90
2023-01-19T19:52:11.825Z,13.18
2023-01-19T19:53:44.785Z,12.70
2023-01-19T19:55:17.943Z,12.63
2023-01-19T19:56:52.102Z,14.45
2023-01-19T19:58:25.846Z,14.05
2023-01-19T19:59:58.916Z,12.90
2023-01-19T20:01:33.668Z,12.75
2023-01-19T20:03:13.340Z,15.03
2023-01-19T20:04:47.933Z,13.45
2023-01-19T20:06:24.562Z,14.40
2023-01-19T20:07:57.603Z,13.75
2023-01-19T20:09:30.627Z,14.25
2023-01-19T20:11:08.366Z,14.07
2023-01-19T20:12:41.394Z,11.90
2023-01-19T20:14:16.247Z,13.93
2023-01-19T20:15:49.385Z,14.68
2023-01-19T20:17:23.207Z,13.13
2023-01-19T20:18:56.494Z,15.48
2023-01-19T20:20:31.011Z,12.77
2023-01-19T20:22:04.526Z,13.23
2023-01-19T20:23:37.489Z,12.90
2023-01-19T20:25:11.063Z,11.82
2023-01-19T20:26:45.870Z,14.73
2023-01-19T20:28:18.932Z,12.00
2023-01-19T20:29:57.966Z,13.32
2023-01-19T20:31:32.919Z,15.68
2023-01-19T20:33:05.909Z,13.48
2023-01-19T20:34:39.899Z,17.20
2023-01-19T20:36:15.958Z,14.57
2023-01-19T20:37:48.939Z,13.27
2023-01-19T20:39:23.241Z,13.07
2023-01-19T20:40:56.209Z,14.48
2023-01-19T20:42:29.154Z,14.30
2023-01-19T20:44:02.207Z,12.65
2023-01-19T20:45:35.274Z,14.82
2023-01-19T20:47:09.243Z,12.27
2023-01-19T20:48:42.305Z,15.63
2023-01-19T20:50:15.211Z,16.70
2023-01-19T20:51:51.267Z,14.10
2023-01-19T20:53:24.218Z,17.80
2023-01-19T20:54:57.214Z,15.55
2023-01-19T20:56:30.202Z,12.23
2023-01-19T20:58:03.405Z,15.50
2023-01-19T20:59:36.956Z,15.40
2023-01-19T21:01:15.480Z,14.15
2023-01-19T21:02:48.505Z,15.50
2023-01-19T21:04:22.341Z,15.32
2023-01-19T21:05:56.922Z,13.25
2023-01-19T21:07:32.271Z,13.63
2023-01-19T21:09:05.569Z,13.93
2023-01-19T21:10:38.484Z,10.60
2023-01-19T21:12:11.876Z,14.52
2023-01-19T21:15:18.698Z,13.30
2023-01-19T21:16:54.364Z,13.60
2023-01-19T21:18:28.277Z,14.27
2023-01-19T21:20:01.330Z,14.88